Lodgepole, Nebraska
Current Conditions -  °F | °C
As of 7:53 AM on Monday 24 Nov 2014 (Local Time) from KSNY Reporting Station
Broken Clouds Broken Clouds  
Wind Chill: -6°   Ceiling: 7500
Heat Index: -1°   Visibility: 10mi
Dew Point: -9°   Wind: 10mph
Humidity: 56%   Direction: 300°WNW
Pressure: 29.85"   Gusts: NA
Location:  41.15°N, 102.64°W
Report Text: KSNY 241453Z AUTO 30009KT 10SM BKN075 M01/M09 A2985 RMK AO2 SLP135 T10111089 53017
Loading
Personal Weather Stations






























Interactive Weather Map New forecast layout! Learn more

10-Day Weather Forecast

Advertisements
Track Severe Weather on mobile